Time;durP1;ratioP1;P1;durP2;ratioP2;P2;SDS_P1;SDS_P2;PMS_P1;PMS_P2;Temp;Humidity;BMP_temperature;BMP_pressure;BME280_temperature;BME280_humidity;BME280_pressure;Samples;Min_cycle;Max_cycle;Signal;HPM_P1;HPM_P2
2022/05/01 00:04:49;;;;;;;1999.90;999.90;;;;;;;12.49;62.18;101710.31;15805303;28;19920;-55
2022/05/01 00:12:22;;;;;;;1999.90;999.90;;;;;;;12.09;63.18;101713.88;15804425;28;20078;-57
2022/05/01 00:19:56;;;;;;;1999.90;999.90;;;;;;;12.07;63.15;101718.94;15804374;28;20169;-56
2022/05/01 00:27:29;;;;;;;;;;;;;;;12.26;62.60;101709.53;15804176;28;20496;-55
2022/05/01 00:42:55;;;;;;;1999.90;999.90;;;;;;;12.11;61.91;101702.38;15798192;28;20062;-58
2022/05/01 00:50:29;;;;;;;1999.90;999.90;;;;;;;12.33;60.91;101707.94;15786401;28;20043;-59
2022/05/01 00:58:04;;;;;;;1999.90;999.90;;;;;;;12.24;60.72;101703.44;15802576;28;20101;-57
2022/05/01 01:05:38;;;;;;;1999.90;999.90;;;;;;;12.18;60.70;101704.69;15775687;28;20044;-55
2022/05/01 01:13:12;;;;;;;1999.90;999.90;;;;;;;11.70;61.99;101708.13;15785087;28;20098;-57
2022/05/01 01:20:45;;;;;;;;;;;;;;;11.71;61.79;101706.97;15784689;28;20048;-55
2022/05/01 01:28:19;;;;;;;1999.90;999.90;;;;;;;11.70;61.00;101699.75;15782757;28;19928;-55
2022/05/01 01:35:55;;;;;;;1999.90;999.90;;;;;;;11.87;60.37;101711.06;15800504;28;20043;-54
2022/05/01 01:43:29;;;;;;;1999.90;999.90;;;;;;;11.69;60.76;101715.69;15799936;28;20091;-58
2022/05/01 01:51:06;;;;;;;1999.90;999.90;;;;;;;11.79;60.76;101714.63;15765503;28;20153;-56
2022/05/01 01:58:39;;;;;;;1999.90;999.90;;;;;;;11.92;60.21;101712.94;15800042;28;20051;-57
2022/05/01 02:06:14;;;;;;;1999.90;999.90;;;;;;;11.95;60.93;101718.72;15764574;28;20641;-55
2022/05/01 02:13:47;;;;;;;1999.90;999.90;;;;;;;12.16;60.47;101709.78;15780250;28;20062;-53
2022/05/01 02:21:36;;;;;;;1999.90;999.90;;;;;;;12.11;60.08;101717.19;15779621;28;20043;-55
2022/05/01 02:29:10;;;;;;;1999.90;999.90;;;;;;;12.06;60.90;101714.50;15779878;28;20056;-53
2022/05/01 02:36:44;;;;;;;1999.90;999.90;;;;;;;11.92;60.75;101718.53;15767040;28;20518;-53
2022/05/01 02:44:16;;;;;;;;;;;;;;;11.68;61.30;101718.81;15788515;28;20055;-55
2022/05/01 02:51:52;;;;;;;1999.90;999.90;;;;;;;11.47;61.76;101710.06;15735914;28;19924;-56
2022/05/01 02:59:24;;;;;;;1999.90;999.90;;;;;;;11.13;62.82;101703.00;15781269;28;20493;-58
2022/05/01 03:06:59;;;;;;;1999.90;999.90;;;;;;;11.10;62.63;101700.00;15778607;28;20475;-55
2022/05/01 03:14:33;;;;;;;1999.90;999.90;;;;;;;10.89;62.95;101711.59;15796948;28;20111;-56
2022/05/01 03:22:11;;;;;;;1999.90;999.90;;;;;;;11.09;62.38;101695.56;15769541;28;20048;-59
2022/05/01 03:30:15;;;;;;;1999.90;999.90;;;;;;;10.88;63.18;101703.56;15818882;22;20435;-63
2022/05/01 03:37:38;;;;;;;1999.90;999.90;;;;;;;10.70;64.17;101708.09;15856003;28;20071;-64
2022/05/01 03:45:11;;;;;;;1999.90;999.90;;;;;;;10.66;63.35;101704.28;15875906;28;20044;-63
2022/05/01 03:52:45;;;;;;;1999.90;999.90;;;;;;;10.62;64.35;101708.81;15879909;28;20035;-63
2022/05/01 04:00:19;;;;;;;1999.90;999.90;;;;;;;10.55;63.93;101717.59;15886887;27;20075;-63
2022/05/01 04:07:53;;;;;;;1999.90;999.90;;;;;;;10.56;64.05;101712.84;15878523;28;20089;-64
2022/05/01 04:15:25;;;;;;;1999.90;999.90;;;;;;;10.62;63.85;101709.63;15882360;28;20139;-64
2022/05/01 04:22:59;;;;;;;1999.90;999.90;;;;;;;10.77;63.93;101730.03;15865509;28;20524;-61
2022/05/01 04:30:32;;;;;;;1999.90;999.90;;;;;;;10.65;64.76;101731.38;15854222;28;20050;-62
2022/05/01 04:38:08;;;;;;;1999.90;999.90;;;;;;;11.02;63.85;101723.91;15874889;28;20035;-61
2022/05/01 04:45:42;;;;;;;1999.90;999.90;;;;;;;11.03;63.61;101733.94;15875462;28;20488;-62
2022/05/01 04:53:18;;;;;;;1999.90;999.90;;;;;;;11.42;62.37;101735.34;15872618;28;20453;-62
2022/05/01 05:00:50;;;;;;;1999.90;999.90;;;;;;;11.39;62.48;101731.22;15871136;28;20051;-62
2022/05/01 05:16:14;;;;;;;1999.90;999.90;;;;;;;12.27;59.43;101745.59;15868179;28;20047;-61
2022/05/01 05:23:47;;;;;;;1999.90;999.90;;;;;;;12.67;58.79;101749.25;15866560;28;20104;-61
2022/05/01 05:31:19;;;;;;;;;;;;;;;13.29;57.41;101754.78;15866470;28;20040;-62
2022/05/01 05:38:53;;;;;;;1999.90;999.90;;;;;;;13.54;55.09;101760.75;15867465;28;19919;-63
2022/05/01 05:46:26;;;;;;;1999.90;999.90;;;;;;;14.02;53.05;101755.00;15865610;28;20040;-62
2022/05/01 05:53:59;;;;;;;1999.90;999.90;;;;;;;15.08;51.76;101757.19;15865344;28;20070;-64
2022/05/01 06:01:31;;;;;;;1999.90;999.90;;;;;;;15.30;49.92;101762.53;15864682;28;20436;-63
2022/05/01 06:09:05;;;;;;;1999.90;999.90;;;;;;;16.33;48.84;101763.72;15847437;28;20106;-62
2022/05/01 06:16:43;;;;;;;1999.90;999.90;;;;;;;17.13;46.12;101765.31;15864375;28;20044;-62
2022/05/01 06:24:17;;;;;;;1999.90;999.90;;;;;;;17.86;44.14;101774.53;15846775;28;20040;-62
2022/05/01 06:31:49;;;;;;;1999.90;999.90;;;;;;;18.74;42.97;101791.56;15864191;28;20043;-62
2022/05/01 06:39:23;;;;;;;1999.90;999.90;;;;;;;19.69;40.17;101785.88;15847948;28;20044;-64
2022/05/01 06:46:55;;;;;;;1999.90;999.90;;;;;;;20.00;39.41;101791.41;15865194;28;20050;-60
2022/05/01 06:54:29;;;;;;;1999.90;999.90;;;;;;;19.00;42.11;101786.22;15869605;28;20048;-60
2022/05/01 07:02:02;;;;;;;1999.90;999.90;;;;;;;19.64;40.16;101791.84;15879762;28;20058;-62
2022/05/01 07:09:36;;;;;;;1999.90;999.90;;;;;;;20.50;40.05;101788.84;15878419;28;20408;-63
2022/05/01 07:17:09;;;;;;;1999.90;999.90;;;;;;;21.17;37.38;101784.41;15879145;28;20516;-61
2022/05/01 07:24:42;;;;;;;1999.90;999.90;;;;;;;21.43;37.49;101794.16;15876731;28;20148;-62
2022/05/01 07:32:14;;;;;;;1999.90;999.90;;;;;;;20.45;38.46;101804.97;15876289;28;20050;-61
2022/05/01 07:39:48;;;;;;;1999.90;999.90;;;;;;;19.77;41.94;101799.00;15874137;28;20075;-62
2022/05/01 07:47:20;;;;;;;1999.90;999.90;;;;;;;20.42;40.44;101799.16;15863447;28;20043;-62
2022/05/01 07:54:54;;;;;;;1999.90;999.90;;;;;;;22.33;37.92;101797.06;15864903;28;20039;-62
2022/05/01 08:02:34;;;;;;;1999.90;999.90;;;;;;;22.27;36.99;101801.47;15873322;28;20050;-62
2022/05/01 08:10:08;;;;;;;1999.90;999.90;;;;;;;20.69;40.40;101802.97;15851824;28;20404;-63
2022/05/01 08:17:41;;;;;;;1999.90;999.90;;;;;;;21.68;37.59;101798.22;15857917;28;20048;-61
2022/05/01 08:25:14;;;;;;;1999.90;999.90;;;;;;;22.05;38.08;101803.19;15870369;28;20142;-62
2022/05/01 08:32:47;;;;;;;1999.90;999.90;;;;;;;22.04;38.94;101804.38;15869270;28;20852;-62
2022/05/01 08:40:21;;;;;;;1999.90;999.90;;;;;;;20.99;39.15;101809.63;15871094;28;20035;-63
2022/05/01 08:48:10;;;;;;;1999.90;999.90;;;;;;;19.89;41.10;101796.84;15871442;28;20058;-63
2022/05/01 08:55:47;;;;;;;1999.90;999.90;;;;;;;19.68;40.31;101807.69;15870078;28;20407;-62
2022/05/01 09:03:20;;;;;;;1999.90;999.90;;;;;;;19.29;41.07;101798.25;15870047;28;20044;-61
2022/05/01 09:12:49;;;;;;;1999.90;999.90;;;;;;;19.03;40.38;101805.28;15869295;28;20163;-62
2022/05/01 09:19:05;;;;;;;1999.90;999.90;;;;;;;18.90;40.07;101808.56;15860135;27;20044;-63
2022/05/01 09:26:38;;;;;;;1999.90;999.90;;;;;;;19.02;40.63;101814.13;15817137;22;20197;-60
2022/05/01 09:34:25;;;;;;;1999.90;999.90;;;;;;;19.22;39.71;101801.72;15710202;28;20154;-61
2022/05/01 09:42:14;;;;;;;1999.90;999.90;;;;;;;18.95;39.50;101805.44;15771899;28;20044;-60
2022/05/01 09:49:49;;;;;;;1999.90;999.90;;;;;;;18.99;40.32;101793.06;15784585;28;20442;-61
2022/05/01 09:57:24;;;;;;;1999.90;999.90;;;;;;;18.62;41.59;101794.44;15795786;28;20052;-61
2022/05/01 10:05:02;;;;;;;1999.90;999.90;;;;;;;18.39;42.28;101797.88;15797117;28;20139;-59
2022/05/01 10:12:45;;;;;;;1999.90;999.90;;;;;;;18.44;41.92;101794.78;15780472;28;20079;-60
2022/05/01 10:20:24;;;;;;;1999.90;999.90;;;;;;;17.63;43.11;101792.31;15781599;28;20052;-59
2022/05/01 10:28:14;;;;;;;1999.90;999.90;;;;;;;17.50;43.77;101789.47;15776544;28;20094;-61
2022/05/01 10:36:29;;;;;;;1999.90;999.90;;;;;;;17.38;45.67;101789.50;15788731;28;20056;-59
2022/05/01 10:44:12;;;;;;;1999.90;999.90;;;;;;;17.83;44.19;101780.06;15792254;28;20064;-57
2022/05/01 10:51:54;;;;;;;1999.90;999.90;;;;;;;17.55;44.85;101779.97;15768123;28;20040;-58
2022/05/01 10:59:44;;;;;;;1999.90;999.90;;;;;;;17.18;45.61;101776.34;15784023;28;20071;-57
2022/05/01 11:07:21;;;;;;;1999.90;999.90;;;;;;;17.32;44.92;101782.47;15770447;28;20597;-61
2022/05/01 11:14:58;;;;;;;1999.90;999.90;;;;;;;17.29;44.96;101771.88;15791372;28;20040;-59
2022/05/01 11:22:31;;;;;;;1999.90;999.90;;;;;;;17.51;44.02;101771.41;15747296;28;20064;-59
2022/05/01 11:30:22;;;;;;;1999.90;999.90;;;;;;;17.56;44.15;101762.69;15741605;28;20112;-58
2022/05/01 11:38:23;;;;;;;1999.90;999.90;;;;;;;17.87;43.97;101764.88;15787010;28;20158;-55
2022/05/01 11:45:58;;;;;;;1999.90;999.90;;;;;;;18.29;42.99;101761.66;15794716;28;20075;-56
2022/05/01 11:53:32;;;;;;;1999.90;999.90;;;;;;;18.86;41.90;101753.91;15768848;28;20512;-55
2022/05/01 12:09:05;;;;;;;1999.90;999.90;;;;;;;20.41;38.86;101749.34;15786861;28;20042;-56
2022/05/01 12:16:41;;;;;;;1999.90;999.90;;;;;;;20.30;37.76;101742.66;15784687;28;20124;-55
2022/05/01 12:24:16;;;;;;;1999.90;999.90;;;;;;;20.80;39.66;101740.78;15749375;28;20089;-58
2022/05/01 12:32:01;;;;;;;1999.90;999.90;;;;;;;20.51;38.85;101733.75;15763542;28;20036;-57
2022/05/01 12:39:40;;;;;;;1999.90;999.90;;;;;;;19.91;39.47;101739.84;15788024;28;20127;-56
2022/05/01 12:47:30;;;;;;;1999.90;999.90;;;;;;;20.20;39.01;101732.75;15785641;28;20044;-58
2022/05/01 12:55:14;;;;;;;1999.90;999.90;;;;;;;20.52;38.38;101739.06;15768089;28;20095;-59
2022/05/01 13:02:48;;;;;;;1999.90;999.90;;;;;;;20.95;38.22;101737.81;15794323;28;20118;-60
2022/05/01 13:10:20;;;;;;;1999.90;999.90;;;;;;;23.17;33.53;101736.56;15798486;28;20469;-57
2022/05/01 13:18:02;;;;;;;1999.90;999.90;;;;;;;22.41;34.23;101734.22;15779616;28;20048;-58
2022/05/01 13:25:36;;;;;;;1999.90;999.90;;;;;;;25.76;29.27;101731.94;15778919;28;20082;-58
2022/05/01 13:33:10;;;;;;;1999.90;999.90;;;;;;;26.79;28.09;101725.69;15796029;28;20042;-55
2022/05/01 13:48:42;;;;;;;1999.90;999.90;;;;;;;21.81;35.40;101702.22;15766600;28;20044;-59
2022/05/01 13:56:15;;;;;;;1999.90;999.90;;;;;;;20.75;37.25;101707.91;15770641;28;20047;-57
2022/05/01 14:03:49;;;;;;;1999.90;999.90;;;;;;;20.47;36.71;101691.19;15775450;28;20126;-54
2022/05/01 14:11:22;;;;;;;1999.90;999.90;;;;;;;20.93;35.76;101686.28;15782224;28;20048;-56
2022/05/01 14:18:56;;;;;;;1999.90;999.90;;;;;;;20.92;36.42;101693.16;15773217;28;20051;-60
2022/05/01 14:26:28;;;;;;;1999.90;999.90;;;;;;;20.13;35.89;101687.28;15754806;28;20534;-56
2022/05/01 14:34:09;;;;;;;1999.90;999.90;;;;;;;20.06;37.53;101675.81;15783753;28;20067;-59
2022/05/01 14:41:44;;;;;;;1999.90;999.90;;;;;;;20.05;37.11;101672.16;15786877;28;20048;-59
2022/05/01 14:49:43;;;;;;;1999.90;999.90;;;;;;;19.84;36.18;101680.22;15772168;28;20387;-55
2022/05/01 14:57:20;;;;;;;1999.90;999.90;;;;;;;19.28;37.05;101660.78;15787255;28;20048;-56
2022/05/01 15:12:48;;;;;;;1999.90;999.90;;;;;;;19.58;35.50;101661.88;15773504;28;20143;-56
2022/05/01 15:20:33;;;;;;;;;;;;;;;19.60;37.23;101656.69;15800998;28;20044;-51
2022/05/01 15:28:24;;;;;;;1999.90;999.90;;;;;;;19.03;36.53;101651.72;15800515;22;19931;-61
2022/05/01 15:36:29;;;;;;;1999.90;999.90;;;;;;;18.97;37.93;101650.38;15815863;28;20036;-62
2022/05/01 15:44:07;;;;;;;1999.90;999.90;;;;;;;18.65;38.07;101649.56;15863203;28;20553;-62
2022/05/01 15:59:32;;;;;;;1999.90;999.90;;;;;;;18.18;39.01;101654.00;15871993;28;20044;-61
2022/05/01 16:07:13;;;;;;;1999.90;999.90;;;;;;;18.44;38.90;101653.50;15872361;28;20503;-62
2022/05/01 16:14:51;;;;;;;1999.90;999.90;;;;;;;18.27;39.65;101644.53;15871292;28;20504;-63
2022/05/01 16:22:35;;;;;;;1999.90;999.90;;;;;;;18.31;39.33;101643.44;15902302;27;20416;-62
2022/05/01 16:30:10;;;;;;;1999.90;999.90;;;;;;;17.91;40.08;101639.91;15869436;28;20108;-62
2022/05/01 16:37:53;;;;;;;1999.90;999.90;;;;;;;18.03;40.69;101646.34;15832347;28;20424;-62
2022/05/01 16:45:29;;;;;;;1999.90;999.90;;;;;;;18.08;40.92;101651.72;15856061;28;20401;-62
2022/05/01 16:53:11;;;;;;;1999.90;999.90;;;;;;;18.16;41.07;101644.25;15866680;28;20036;-61
2022/05/01 17:00:55;;;;;;;1999.90;999.90;;;;;;;17.88;42.46;101636.63;15869463;28;20140;-61
2022/05/01 17:08:43;;;;;;;1999.90;999.90;;;;;;;17.64;42.84;101639.53;15860960;28;20044;-60
2022/05/01 17:16:30;;;;;;;1999.90;999.90;;;;;;;17.61;42.55;101628.94;15860326;27;20059;-62
2022/05/01 17:24:06;;;;;;;1999.90;999.90;;;;;;;17.59;43.17;101634.13;15862770;27;20055;-59
2022/05/01 17:31:46;;;;;;;1999.90;999.90;;;;;;;17.55;43.66;101625.56;15853921;27;20047;-64
2022/05/01 17:39:21;;;;;;;1999.90;999.90;;;;;;;17.15;45.28;101636.88;15871329;27;20075;-57
2022/05/01 17:46:54;;;;;;;1999.90;999.90;;;;;;;16.91;45.57;101631.28;15856201;28;20059;-58
2022/05/01 17:54:30;;;;;;;1999.90;999.90;;;;;;;16.91;45.33;101636.91;15857391;28;20032;-57
2022/05/01 18:02:39;;;;;;;1999.90;999.90;;;;;;;17.00;45.55;101631.97;15860344;28;20040;-65
2022/05/01 18:10:20;;;;;;;1999.90;999.90;;;;;;;16.64;46.60;101633.59;15859918;28;20040;-59
2022/05/01 18:18:15;;;;;;;1999.90;999.90;;;;;;;16.53;47.41;101635.22;15862240;28;20522;-60
2022/05/01 18:25:59;;;;;;;1999.90;999.90;;;;;;;16.44;47.97;101648.59;15860400;28;20089;-58
2022/05/01 18:33:37;;;;;;;1999.90;999.90;;;;;;;16.32;48.40;101646.59;15853251;28;20044;-60
2022/05/01 18:41:13;;;;;;;1999.90;999.90;;;;;;;16.05;48.51;101655.72;15862932;28;20054;-64
2022/05/01 18:48:47;;;;;;;1999.90;999.90;;;;;;;15.88;49.19;101660.34;15842193;28;20105;-61
2022/05/01 18:56:29;;;;;;;1999.90;999.90;;;;;;;15.78;50.02;101674.00;15876266;27;20097;-61
2022/05/01 19:04:01;;;;;;;1999.90;999.90;;;;;;;15.67;50.02;101668.00;15869364;27;20056;-59
2022/05/01 19:11:47;;;;;;;1999.90;999.90;;;;;;;15.66;50.17;101688.03;15867291;28;20116;-56
2022/05/01 19:19:36;;;;;;;1999.90;999.90;;;;;;;15.45;50.23;101683.19;15877882;28;20050;-60
2022/05/01 19:27:18;;;;;;;1999.90;999.90;;;;;;;15.43;50.76;101685.53;15876653;28;20052;-58
2022/05/01 19:35:03;;;;;;;1999.90;999.90;;;;;;;15.39;51.08;101692.19;15870585;28;20044;-62
2022/05/01 19:42:52;;;;;;;1999.90;999.90;;;;;;;15.42;51.30;101694.28;15874551;28;20668;-59
2022/05/01 19:58:25;;;;;;;1999.90;999.90;;;;;;;15.23;51.70;101701.22;15852365;28;20044;-62
2022/05/01 20:05:59;;;;;;;1999.90;999.90;;;;;;;15.14;52.48;101696.81;15853105;28;20046;-56
2022/05/01 20:13:33;;;;;;;1999.90;999.90;;;;;;;15.07;52.48;101690.91;15910830;27;20054;-59
2022/05/01 20:21:11;;;;;;;1999.90;999.90;;;;;;;15.01;52.75;101696.75;15922466;27;20454;-57
2022/05/01 20:29:02;;;;;;;1999.90;999.90;;;;;;;15.02;53.40;101689.13;15936625;27;20129;-58
2022/05/01 20:36:51;;;;;;;1999.90;999.90;;;;;;;14.93;53.61;101693.97;15873631;27;20039;-60
2022/05/01 20:44:49;;;;;;;1999.90;999.90;;;;;;;14.89;54.31;101693.81;15884438;27;20408;-61
2022/05/01 20:52:26;;;;;;;1999.90;999.90;;;;;;;14.85;54.96;101684.41;15870057;28;20040;-59
2022/05/01 21:00:04;;;;;;;1999.90;999.90;;;;;;;14.79;55.12;101688.56;15878459;27;20061;-61
2022/05/01 21:07:41;;;;;;;1999.90;999.90;;;;;;;14.73;54.83;101689.94;15866445;28;20468;-62
2022/05/01 21:15:17;;;;;;;1999.90;999.90;;;;;;;14.75;55.35;101687.59;15866428;28;20046;-62
2022/05/01 21:22:54;;;;;;;1999.90;999.90;;;;;;;14.73;56.19;101687.13;15816568;28;20370;-61
2022/05/01 21:38:25;;;;;;;1999.90;999.90;;;;;;;14.53;56.71;101685.88;15734488;28;20055;-58
2022/05/01 21:46:09;;;;;;;1999.90;999.90;;;;;;;14.54;55.93;101684.72;15735665;28;20040;-58
2022/05/01 21:53:48;;;;;;;1999.90;999.90;;;;;;;14.32;56.62;101677.34;15723298;28;20115;-56
2022/05/01 22:01:22;;;;;;;1999.90;999.90;;;;;;;14.24;56.95;101672.56;15668193;28;20047;-56
2022/05/01 22:08:57;;;;;;;1999.90;999.90;;;;;;;14.12;56.63;101670.47;15709429;28;20183;-57
2022/05/01 22:16:36;;;;;;;1999.90;999.90;;;;;;;13.90;56.85;101672.66;15674561;28;20437;-61
2022/05/01 22:24:14;;;;;;;1999.90;999.90;;;;;;;14.09;56.36;101673.13;15683328;28;20044;-62
2022/05/01 22:32:07;;;;;;;1999.90;999.90;;;;;;;14.25;55.48;101687.44;15682112;28;20041;-61
2022/05/01 22:39:44;;;;;;;1999.90;999.90;;;;;;;14.26;55.56;101689.06;15712255;28;20049;-60
2022/05/01 22:47:20;;;;;;;1999.90;999.90;;;;;;;14.18;56.36;101687.97;15658609;28;20417;-61
2022/05/01 22:55:01;;;;;;;1999.90;999.90;;;;;;;14.02;56.57;101692.44;15688991;28;20085;-60
2022/05/01 23:02:35;;;;;;;1999.90;999.90;;;;;;;13.49;58.48;101693.63;15672392;28;20048;-61
2022/05/01 23:10:43;;;;;;;1999.90;999.90;;;;;;;13.73;57.79;101684.72;15728540;28;20037;-61
2022/05/01 23:18:28;;;;;;;1999.90;999.90;;;;;;;13.69;57.88;101690.16;15675027;28;20151;-61
2022/05/01 23:26:00;;;;;;;;;;;;;;;13.70;57.63;101697.44;15689039;28;20068;-60
2022/05/01 23:33:54;;;;;;;1999.90;999.90;;;;;;;13.74;57.98;101695.59;15676610;28;20027;-61
2022/05/01 23:41:26;;;;;;;;;;;;;;;13.77;58.56;101689.34;15709402;28;20048;-61
2022/05/01 23:49:00;;;;;;;1999.90;999.90;;;;;;;13.45;59.58;101689.84;15688618;28;20419;-59
2022/05/01 23:56:32;;;;;;;1999.90;999.90;;;;;;;13.23;59.31;101677.63;15677104;28;20033;-61
